Time;durP1;ratioP1;P1;durP2;ratioP2;P2;SDS_P1;SDS_P2;PMS_P1;PMS_P2;Temp;Humidity;BMP_temperature;BMP_pressure;BME280_temperature;BME280_humidity;BME280_pressure;Samples;Min_cycle;Max_cycle;Signal;HPM_P1;HPM_P2
2022/07/13 01:30:43;;;;;;;1.85;0.70;;;;;;;17.61;53.22;97434.25;5671979;23;20058;-79
2022/07/13 01:33:11;;;;;;;0.85;0.80;;;;;;;17.63;53.57;97420.88;4960922;29;20521;-80
2022/07/13 01:35:38;;;;;;;2.45;1.05;;;;;;;17.64;53.21;97422.47;4960299;29;20130;-79
2022/07/13 01:38:06;;;;;;;2.05;1.00;;;;;;;17.66;53.68;97420.44;4959873;29;20492;-77
2022/07/13 01:40:33;;;;;;;1.67;1.00;;;;;;;17.64;52.98;97418.00;4954800;29;20111;-79
2022/07/13 01:43:01;;;;;;;2.53;0.90;;;;;;;17.62;53.09;97424.50;4940459;29;20070;-76
2022/07/13 01:45:29;;;;;;;0.80;0.80;;;;;;;17.59;53.06;97417.81;4940167;29;20082;-79
2022/07/13 01:47:57;;;;;;;0.95;0.77;;;;;;;17.60;53.08;97415.97;4940584;29;20134;-79
2022/07/13 01:50:27;;;;;;;1.45;0.70;;;;;;;17.60;53.00;97416.81;4939489;29;20138;-78
2022/07/13 01:52:55;;;;;;;2.10;1.33;;;;;;;17.60;52.84;97415.97;4940221;29;20055;-78
2022/07/13 01:55:23;;;;;;;2.45;0.75;;;;;;;17.59;53.00;97412.53;4940791;29;20131;-79
2022/07/13 01:57:57;;;;;;;2.65;0.80;;;;;;;17.55;52.88;97408.69;4940186;29;20573;-77
2022/07/13 02:00:24;;;;;;;1.27;1.10;;;;;;;17.54;53.06;97411.56;4939406;29;20501;-77
2022/07/13 02:02:52;;;;;;;1.00;0.60;;;;;;;17.50;53.01;97411.16;4940460;29;20071;-76
2022/07/13 02:05:22;;;;;;;1.80;0.85;;;;;;;17.48;53.24;97419.25;4940676;29;20082;-79
2022/07/13 02:07:49;;;;;;;1.15;0.93;;;;;;;17.47;53.36;97420.28;4940520;29;20135;-82
2022/07/13 02:10:17;;;;;;;0.88;0.77;;;;;;;17.48;53.96;97408.72;4940048;29;20309;-78
2022/07/13 02:12:45;;;;;;;0.75;0.65;;;;;;;17.51;53.26;97402.22;4939866;29;20051;-78
2022/07/13 02:15:12;;;;;;;1.90;0.80;;;;;;;17.49;53.39;97404.22;4939940;29;20052;-77
2022/07/13 02:17:40;;;;;;;1.73;0.98;;;;;;;17.48;53.54;97415.81;4939586;29;20130;-77
2022/07/13 02:20:09;;;;;;;1.27;0.90;;;;;;;17.48;53.41;97407.91;4938260;29;20054;-78
2022/07/13 02:22:42;;;;;;;2.38;0.70;;;;;;;17.47;53.56;97411.53;4939106;29;20056;-77
2022/07/13 02:25:10;;;;;;;2.65;0.70;;;;;;;17.46;53.42;97405.47;4940947;29;20068;-79
2022/07/13 02:27:38;;;;;;;2.63;0.60;;;;;;;17.45;53.45;97413.59;4942626;29;20143;-79
2022/07/13 02:30:06;;;;;;;1.10;0.70;;;;;;;17.45;53.53;97403.84;4941332;29;20138;-77
2022/07/13 02:32:34;;;;;;;0.60;0.60;;;;;;;17.46;53.58;97409.94;4947884;29;20054;-80
2022/07/13 02:35:01;;;;;;;1.23;1.08;;;;;;;17.44;53.47;97409.31;4943803;29;20053;-83
2022/07/13 02:37:29;;;;;;;0.85;0.80;;;;;;;17.37;53.57;97403.25;4942558;29;20055;-80
2022/07/13 02:39:58;;;;;;;1.08;0.80;;;;;;;17.30;53.57;97401.44;4942698;29;20151;-80
2022/07/13 02:42:26;;;;;;;0.85;0.82;;;;;;;17.30;53.89;97392.72;4942754;29;20058;-80
2022/07/13 02:44:54;;;;;;;0.85;0.70;;;;;;;17.27;53.85;97391.31;4942413;29;20170;-78
2022/07/13 02:47:23;;;;;;;0.85;0.73;;;;;;;17.24;53.93;97394.34;4942536;29;20059;-83
2022/07/13 02:49:51;;;;;;;0.80;0.80;;;;;;;17.22;53.97;97387.66;4942597;29;20142;-81
2022/07/13 02:52:18;;;;;;;2.80;0.70;;;;;;;17.20;53.83;97379.94;4943245;29;20086;-84
2022/07/13 02:54:46;;;;;;;1.48;0.85;;;;;;;17.17;53.86;97384.81;4942606;29;20134;-82
2022/07/13 02:57:15;;;;;;;1.15;0.80;;;;;;;17.12;54.21;97382.81;4942936;29;20083;-82
2022/07/13 02:59:42;;;;;;;2.38;1.00;;;;;;;17.09;54.15;97376.09;4942454;29;20123;-83
2022/07/13 03:02:10;;;;;;;1.02;0.70;;;;;;;17.07;54.26;97374.69;4941796;29;20139;-80
2022/07/13 03:04:37;;;;;;;0.68;0.68;;;;;;;17.06;54.40;97370.44;4942601;29;20515;-79
2022/07/13 03:07:05;;;;;;;0.65;0.65;;;;;;;17.05;54.49;97367.00;4942244;29;20139;-83
2022/07/13 03:09:32;;;;;;;0.93;0.73;;;;;;;17.05;54.29;97367.00;4943559;29;20055;-80
2022/07/13 03:12:00;;;;;;;0.80;0.65;;;;;;;17.05;54.38;97360.91;4942692;29;20425;-78
2022/07/13 03:14:29;;;;;;;0.98;0.88;;;;;;;17.06;54.50;97367.81;4942435;29;20058;-78
2022/07/13 03:16:56;;;;;;;0.93;0.80;;;;;;;17.05;54.47;97361.72;4941955;29;20533;-81
2022/07/13 03:19:24;;;;;;;3.28;1.20;;;;;;;17.02;54.56;97359.47;4943542;29;20052;-82
2022/07/13 03:21:51;;;;;;;0.65;0.63;;;;;;;17.03;54.45;97363.75;4947779;29;20082;-79
2022/07/13 03:24:19;;;;;;;0.70;0.70;;;;;;;17.01;54.26;97351.78;4946186;29;20112;-82
2022/07/13 03:26:47;;;;;;;2.25;0.73;;;;;;;16.99;54.38;97359.06;4946571;29;20073;-79
2022/07/13 03:29:14;;;;;;;1.50;0.80;;;;;;;16.94;54.67;97353.59;4947907;29;20079;-79
2022/07/13 03:31:43;;;;;;;1.00;0.70;;;;;;;16.92;54.77;97355.63;4947851;29;20107;-79
2022/07/13 03:34:11;;;;;;;0.75;0.75;;;;;;;16.89;54.71;97341.84;4948381;29;20052;-79
2022/07/13 03:36:38;;;;;;;1.63;0.75;;;;;;;16.88;54.91;97342.88;4945913;29;20111;-79
2022/07/13 03:39:06;;;;;;;1.05;0.80;;;;;;;16.88;54.95;97340.25;4947027;29;20086;-80
2022/07/13 03:41:33;;;;;;;0.60;0.60;;;;;;;16.91;54.92;97344.28;4945969;29;20067;-79
2022/07/13 03:44:01;;;;;;;1.02;0.93;;;;;;;16.92;54.66;97340.63;4945001;29;20120;-77
2022/07/13 03:46:29;;;;;;;1.05;0.70;;;;;;;16.90;54.71;97340.00;4945559;29;20051;-79
2022/07/13 03:48:58;;;;;;;0.68;0.68;;;;;;;16.88;54.77;97334.97;4945617;29;20418;-77
2022/07/13 03:51:25;;;;;;;2.38;1.33;;;;;;;16.89;54.78;97336.56;4944969;29;20147;-81
2022/07/13 03:53:53;;;;;;;1.08;0.90;;;;;;;16.91;54.77;97335.56;4944764;29;20076;-79
2022/07/13 03:56:20;;;;;;;1.58;1.00;;;;;;;16.91;54.63;97332.94;4946530;29;20132;-77
2022/07/13 03:58:48;;;;;;;1.23;0.70;;;;;;;16.91;54.68;97338.22;4944108;29;20115;-81
2022/07/13 04:01:17;;;;;;;6.45;1.42;;;;;;;16.89;54.68;97341.84;4942932;29;20122;-79
2022/07/13 04:03:45;;;;;;;4.43;0.93;;;;;;;16.89;54.72;97344.47;4945013;29;20123;-78
2022/07/13 04:06:14;;;;;;;0.70;0.70;;;;;;;16.89;54.83;97346.31;4944971;29;20067;-78
2022/07/13 04:08:41;;;;;;;2.03;0.80;;;;;;;16.89;54.56;97346.31;4945868;29;20094;-79
2022/07/13 04:11:09;;;;;;;2.35;0.80;;;;;;;16.86;54.68;97341.47;4943992;29;20059;-79
2022/07/13 04:13:37;;;;;;;1.27;1.17;;;;;;;16.86;54.92;97344.91;4944985;29;20056;-78
2022/07/13 04:16:05;;;;;;;1.27;0.80;;;;;;;16.86;54.88;97355.44;4944604;29;20060;-79
2022/07/13 04:18:33;;;;;;;0.70;0.70;;;;;;;16.85;54.98;97361.72;4944489;29;20518;-78
2022/07/13 04:21:01;;;;;;;1.17;1.17;;;;;;;16.81;54.90;97354.41;4941797;29;20142;-77
2022/07/13 04:23:31;;;;;;;1.38;1.10;;;;;;;16.85;55.99;97369.63;4942118;29;20051;-79
2022/07/13 04:25:58;;;;;;;1.50;1.00;;;;;;;16.91;55.42;97380.38;4942684;29;20558;-79
2022/07/13 04:28:26;;;;;;;1.58;1.10;;;;;;;16.93;55.22;97379.16;4943119;29;20079;-80
2022/07/13 04:30:53;;;;;;;3.53;1.00;;;;;;;16.94;55.05;97372.06;4941626;29;20062;-77
2022/07/13 04:33:21;;;;;;;2.70;1.23;;;;;;;16.97;55.41;97376.94;4942905;29;20078;-78
2022/07/13 04:35:48;;;;;;;1.23;1.00;;;;;;;17.00;55.21;97371.25;4945856;29;20083;-79
2022/07/13 04:38:16;;;;;;;1.45;1.35;;;;;;;17.01;55.14;97376.31;4945311;29;20111;-79
2022/07/13 04:40:46;;;;;;;2.30;1.30;;;;;;;17.04;55.68;97375.09;4944782;29;20083;-80
2022/07/13 04:43:13;;;;;;;1.83;1.13;;;;;;;17.07;55.11;97372.03;4945386;29;20056;-78
2022/07/13 04:45:41;;;;;;;2.22;1.15;;;;;;;17.07;55.32;97372.03;4945366;29;20134;-80
2022/07/13 04:48:08;;;;;;;2.13;0.98;;;;;;;17.07;55.31;97364.94;4945343;29;20055;-79
2022/07/13 04:50:36;;;;;;;11.90;1.40;;;;;;;17.06;54.93;97368.59;4945611;29;20055;-80
2022/07/13 04:53:03;;;;;;;2.20;1.20;;;;;;;17.05;55.22;97368.81;4945644;29;20075;-79
2022/07/13 04:55:31;;;;;;;1.13;1.10;;;;;;;17.04;55.33;97367.19;4945913;29;20433;-80
2022/07/13 04:58:00;;;;;;;2.25;1.10;;;;;;;17.03;55.34;97363.75;4943809;29;20111;-80
2022/07/13 05:00:27;;;;;;;1.92;1.00;;;;;;;17.04;55.49;97360.09;4943857;29;20537;-79
2022/07/13 05:02:58;;;;;;;4.32;1.33;;;;;;;17.04;55.42;97359.28;4944567;29;20048;-80
2022/07/13 05:05:25;;;;;;;2.03;1.23;;;;;;;17.02;55.46;97356.84;4943138;29;20055;-84
2022/07/13 05:07:53;;;;;;;2.88;1.63;;;;;;;17.01;55.94;97357.03;4943254;29;20044;-80
2022/07/13 05:10:20;;;;;;;1.35;1.15;;;;;;;17.01;55.86;97354.41;4944523;29;20126;-78
2022/07/13 05:12:48;;;;;;;1.30;1.20;;;;;;;17.02;56.06;97356.03;4942782;29;20097;-77
2022/07/13 05:15:37;;;;;;;2.55;1.60;;;;;;;17.03;56.11;97344.47;4943908;29;20062;-78
2022/07/13 05:18:04;;;;;;;1.20;1.00;;;;;;;17.05;56.17;97350.34;4942290;29;20067;-79
2022/07/13 05:20:32;;;;;;;1.77;1.13;;;;;;;17.06;55.74;97350.16;4942100;29;20134;-77
2022/07/13 05:23:00;;;;;;;4.60;0.95;;;;;;;17.11;56.07;97343.47;4942433;29;20139;-78
2022/07/13 05:25:27;;;;;;;0.70;0.70;;;;;;;17.14;56.35;97346.47;4941261;29;20138;-77
2022/07/13 05:27:55;;;;;;;3.42;0.90;;;;;;;17.19;56.46;97341.41;4942060;29;20494;-80
2022/07/13 05:30:26;;;;;;;6.15;1.20;;;;;;;17.24;56.38;97343.44;4941951;29;20047;-78
2022/07/13 05:32:55;;;;;;;4.50;0.90;;;;;;;17.29;56.59;97335.72;4941254;29;20062;-80
2022/07/13 05:35:23;;;;;;;3.75;1.00;;;;;;;17.33;56.68;97334.28;4941842;29;20573;-77
2022/07/13 05:37:51;;;;;;;2.75;1.10;;;;;;;17.40;56.53;97334.28;4941362;29;20107;-78
2022/07/13 05:40:19;;;;;;;1.38;0.82;;;;;;;17.45;56.43;97337.91;4941580;29;20177;-78
2022/07/13 05:42:46;;;;;;;1.23;0.90;;;;;;;17.52;56.41;97340.53;4942443;29;20062;-79
2022/07/13 05:45:14;;;;;;;0.75;0.75;;;;;;;17.57;56.36;97338.06;4941564;29;20498;-78
2022/07/13 05:47:45;;;;;;;1.45;0.90;;;;;;;17.64;56.79;97346.75;4943413;29;20142;-79
2022/07/13 05:50:15;;;;;;;1.52;0.80;;;;;;;17.70;56.64;97343.31;4942895;29;20777;-79
2022/07/13 05:52:43;;;;;;;3.85;1.50;;;;;;;17.78;57.08;97344.09;4941503;29;20111;-78
2022/07/13 05:55:11;;;;;;;1.15;0.90;;;;;;;17.84;56.76;97338.00;4941578;29;20071;-78
2022/07/13 05:57:39;;;;;;;1.30;1.02;;;;;;;17.91;56.63;97334.31;4941837;29;20130;-77
2022/07/13 06:00:11;;;;;;;0.80;0.75;;;;;;;17.96;56.54;97335.53;4942811;29;20056;-77
2022/07/13 06:02:39;;;;;;;2.63;1.50;;;;;;;18.03;56.44;97336.28;4945584;29;20164;-79
2022/07/13 06:05:08;;;;;;;1.10;1.02;;;;;;;18.09;56.34;97335.47;4944540;29;20079;-77
2022/07/13 06:07:37;;;;;;;0.90;0.90;;;;;;;18.15;56.37;97339.91;4945046;29;20094;-80
2022/07/13 06:10:05;;;;;;;1.48;1.10;;;;;;;18.22;56.23;97331.94;4944502;29;20083;-80
2022/07/13 06:12:33;;;;;;;1.85;1.13;;;;;;;18.29;56.18;97335.34;4945092;29;20055;-77
2022/07/13 06:15:01;;;;;;;2.78;1.10;;;;;;;18.33;56.68;97339.97;4951468;29;20082;-82
2022/07/13 06:17:28;;;;;;;3.22;1.02;;;;;;;18.40;56.50;97344.41;4952599;29;20056;-80
2022/07/13 06:19:56;;;;;;;1.80;0.95;;;;;;;18.47;56.68;97343.34;4952078;29;20084;-82
2022/07/13 06:22:23;;;;;;;1.00;0.70;;;;;;;18.53;56.36;97341.69;4951355;29;20075;-80
2022/07/13 06:24:52;;;;;;;3.00;1.15;;;;;;;18.59;56.66;97340.84;4951103;29;20048;-79
2022/07/13 06:27:20;;;;;;;6.70;1.10;;;;;;;18.66;56.78;97331.00;4951389;29;20051;-78
2022/07/13 06:29:47;;;;;;;3.13;1.23;;;;;;;18.73;56.78;97333.59;4951013;29;20473;-79
2022/07/13 06:32:15;;;;;;;5.82;1.55;;;;;;;18.80;56.64;97331.75;4950380;29;20506;-80
2022/07/13 06:34:42;;;;;;;5.07;1.42;;;;;;;18.88;56.40;97339.41;4950504;29;20059;-79
2022/07/13 06:37:10;;;;;;;1.77;1.20;;;;;;;18.98;56.10;97332.81;4949526;29;20107;-80
2022/07/13 06:39:59;;;;;;;2.95;0.90;;;;;;;19.11;55.86;97330.03;4948828;29;20067;-78
2022/07/13 06:42:26;;;;;;;2.83;1.10;;;;;;;19.21;55.60;97330.34;4949472;29;20056;-80
2022/07/13 06:44:55;;;;;;;1.65;0.93;;;;;;;19.33;55.43;97328.63;4948864;29;20055;-81
2022/07/13 06:47:22;;;;;;;4.22;1.25;;;;;;;19.45;55.30;97327.88;4949032;29;20048;-79
2022/07/13 06:49:50;;;;;;;3.13;1.08;;;;;;;19.56;55.37;97319.19;4948735;29;20075;-80
2022/07/13 06:52:17;;;;;;;4.30;1.10;;;;;;;19.67;55.18;97321.09;4946198;29;20079;-79
2022/07/13 06:54:45;;;;;;;2.03;0.88;;;;;;;19.78;54.76;97324.88;4947457;29;20143;-81
2022/07/13 06:57:14;;;;;;;1.17;1.00;;;;;;;19.90;54.50;97324.94;4946105;29;20071;-79
2022/07/13 06:59:48;;;;;;;0.93;0.80;;;;;;;20.00;53.08;97314.59;4944909;29;20051;-79
2022/07/13 07:02:15;;;;;;;1.52;0.88;;;;;;;20.12;52.15;97323.41;4945397;29;20113;-79
2022/07/13 07:04:43;;;;;;;1.50;0.65;;;;;;;20.23;51.40;97319.19;4946048;29;20056;-79
2022/07/13 07:07:11;;;;;;;1.90;0.90;;;;;;;20.36;51.64;97320.84;4944979;29;20059;-79
2022/07/13 07:09:39;;;;;;;1.17;0.70;;;;;;;20.47;51.20;97314.75;4945206;29;20466;-80
2022/07/13 07:12:07;;;;;;;2.08;0.82;;;;;;;20.58;51.13;97321.97;4943662;29;20138;-80
2022/07/13 07:14:37;;;;;;;1.00;0.60;;;;;;;20.71;50.66;97320.16;4945271;29;20056;-79
2022/07/13 07:17:05;;;;;;;3.60;0.88;;;;;;;20.83;49.73;97318.28;4944762;29;20430;-80
2022/07/13 07:19:32;;;;;;;1.67;1.00;;;;;;;20.94;48.24;97320.13;4944726;29;20052;-80
2022/07/13 07:22:00;;;;;;;4.78;0.90;;;;;;;21.05;48.36;97317.72;4944024;29;20525;-78
2022/07/13 07:24:30;;;;;;;1.45;0.75;;;;;;;21.16;48.01;97316.91;4945464;29;20071;-79
2022/07/13 07:26:57;;;;;;;6.82;0.93;;;;;;;21.28;47.59;97312.41;4943754;29;20094;-80
2022/07/13 07:29:25;;;;;;;2.72;0.88;;;;;;;21.43;46.71;97317.28;4943723;29;20139;-79
2022/07/13 07:31:54;;;;;;;2.58;0.60;;;;;;;21.55;46.27;97326.00;4944057;29;20505;-80
2022/07/13 07:34:27;;;;;;;2.38;0.82;;;;;;;21.66;45.14;97319.06;4945288;29;20079;-77
2022/07/13 07:36:54;;;;;;;0.52;0.50;;;;;;;21.80;44.06;97327.59;4944905;29;20513;-79
2022/07/13 07:39:22;;;;;;;0.60;0.40;;;;;;;21.90;42.92;97319.00;4944434;29;20139;-80
2022/07/13 07:41:50;;;;;;;1.55;0.35;;;;;;;21.99;42.59;97326.34;4943999;29;20115;-78
2022/07/13 08:03:55;;;;;;;0.52;0.45;;;;;;;23.24;40.43;97320.19;5711276;23;20038;-82
2022/07/13 08:06:26;;;;;;;1.67;0.47;;;;;;;23.36;40.07;97317.44;4981694;28;20059;-81
2022/07/13 08:08:57;;;;;;;1.77;0.60;;;;;;;23.49;40.64;97321.59;4981032;28;20062;-81
2022/07/13 08:11:26;;;;;;;2.60;0.70;;;;;;;23.60;40.20;97318.00;4981216;28;20059;-81
2022/07/13 08:13:57;;;;;;;1.55;0.60;;;;;;;23.75;39.85;97310.22;4974454;28;20038;-82
2022/07/13 08:16:27;;;;;;;2.13;0.60;;;;;;;23.91;39.11;97313.84;4961690;28;20149;-81
2022/07/13 08:18:56;;;;;;;3.05;0.77;;;;;;;24.06;38.62;97315.88;4978722;23;20564;-76
2022/07/13 08:21:44;;;;;;;2.20;0.60;;;;;;;24.19;38.50;97306.69;4954842;28;20051;-77
2022/07/13 08:24:11;;;;;;;1.80;0.60;;;;;;;24.29;38.08;97303.28;4956648;29;20138;-77
2022/07/13 08:26:39;;;;;;;1.73;0.60;;;;;;;24.35;37.73;97292.44;4956590;28;20059;-77
2022/07/13 08:29:06;;;;;;;0.47;0.47;;;;;;;24.44;38.18;97295.44;4945872;29;20134;-76
2022/07/13 08:31:34;;;;;;;1.73;0.80;;;;;;;24.55;37.90;97307.03;4937670;29;20052;-77
2022/07/13 08:39:33;;;;;;;1.92;0.47;;;;;;;24.86;36.54;97292.03;4937477;29;20609;-76
2022/07/13 08:42:02;;;;;;;1.02;0.50;;;;;;;24.96;36.54;97286.78;4936769;29;20139;-77
2022/07/13 08:44:30;;;;;;;0.80;0.47;;;;;;;25.15;37.35;97283.72;4937565;29;20142;-77
2022/07/13 08:47:06;;;;;;;1.10;0.55;;;;;;;25.30;34.59;97286.47;4937647;29;20062;-77
2022/07/13 08:49:35;;;;;;;1.25;0.80;;;;;;;25.46;34.98;97287.34;4936875;29;20068;-78
2022/07/13 08:52:04;;;;;;;0.85;0.40;;;;;;;25.58;35.39;97287.13;4937101;29;20058;-76
2022/07/13 08:54:33;;;;;;;5.82;0.80;;;;;;;25.68;34.02;97287.16;4937121;29;20079;-77
2022/07/13 08:57:00;;;;;;;4.10;0.90;;;;;;;25.79;33.66;97282.66;4936843;29;20478;-77
2022/07/13 08:59:28;;;;;;;0.40;0.40;;;;;;;25.89;34.13;97277.38;4952213;29;20075;-77
2022/07/13 09:01:56;;;;;;;0.30;0.30;;;;;;;25.99;32.96;97281.94;4953944;29;20057;-77
2022/07/13 09:04:24;;;;;;;1.58;0.55;;;;;;;26.08;32.69;97277.66;4942145;29;20047;-76
2022/07/13 09:06:54;;;;;;;0.93;0.50;;;;;;;26.15;31.73;97278.25;4937280;29;20063;-77
2022/07/13 09:09:33;;;;;;;2.65;0.50;;;;;;;26.23;30.68;97277.69;4936486;29;20052;-77
2022/07/13 09:12:21;;;;;;;1.67;0.20;;;;;;;26.31;29.84;97279.84;4936282;29;20056;-76
2022/07/13 09:14:53;;;;;;;0.85;0.20;;;;;;;26.40;29.48;97279.31;4936420;29;20047;-78
2022/07/13 09:17:28;;;;;;;;;;;;;;;26.47;30.89;97277.19;4936749;29;20047;-78
2022/07/13 09:19:56;;;;;;;2.08;0.35;;;;;;;26.55;27.62;97275.84;4936450;29;20013;-78
2022/07/13 09:22:25;;;;;;;2.75;0.47;;;;;;;26.63;27.77;97281.50;4936064;29;20073;-77
2022/07/13 09:24:53;;;;;;;3.10;0.68;;;;;;;26.73;27.30;97279.88;4936217;29;20314;-78
2022/07/13 09:27:22;;;;;;;1.65;0.30;;;;;;;26.83;28.66;97285.19;4936023;29;20052;-78
2022/07/13 09:29:49;;;;;;;1.50;0.22;;;;;;;26.92;28.92;97288.97;4935527;29;20065;-77
2022/07/13 09:32:17;;;;;;;1.17;0.40;;;;;;;27.01;29.18;97281.97;4935739;29;20514;-77
2022/07/13 09:34:54;;;;;;;1.80;0.28;;;;;;;27.07;29.42;97280.91;4934815;29;20143;-77
2022/07/13 09:37:23;;;;;;;0.60;0.30;;;;;;;27.15;29.78;97282.19;4935956;29;20146;-77
2022/07/13 09:40:11;;;;;;;1.90;0.22;;;;;;;27.22;28.86;97288.13;4936659;29;20533;-77
2022/07/13 09:42:40;;;;;;;3.35;0.30;;;;;;;27.27;28.66;97280.06;4946687;29;20178;-78
2022/07/13 09:47:56;;;;;;;1.70;0.30;;;;;;;27.41;28.24;97285.63;4956422;29;20091;-78
2022/07/13 09:50:24;;;;;;;2.65;0.60;;;;;;;27.47;29.17;97284.53;4952943;29;20048;-78
2022/07/13 09:52:53;;;;;;;1.88;0.40;;;;;;;27.54;28.80;97282.38;4939052;29;20059;-77
2022/07/13 09:55:24;;;;;;;0.75;0.30;;;;;;;27.63;27.87;97287.16;4937640;29;20048;-78
2022/07/13 09:57:57;;;;;;;1.38;0.28;;;;;;;27.68;27.74;97290.63;4936493;29;20056;-78
2022/07/13 10:00:32;;;;;;;2.78;0.55;;;;;;;27.73;28.03;97289.81;4955740;29;20059;-78
2022/07/13 10:03:01;;;;;;;3.28;0.40;;;;;;;27.80;27.97;97282.25;4953455;29;20063;-78
2022/07/13 10:05:30;;;;;;;4.03;0.65;;;;;;;27.87;27.47;97288.13;4936184;29;20087;-78
2022/07/13 10:07:58;;;;;;;4.22;0.52;;;;;;;27.94;26.45;97280.59;4935559;29;20135;-78
2022/07/13 10:10:28;;;;;;;0.80;0.20;;;;;;;28.00;26.79;97285.94;4935027;29;20126;-78
2022/07/13 10:13:05;;;;;;;3.08;0.40;;;;;;;28.04;27.24;97284.31;4935420;29;20047;-78
2022/07/13 10:15:33;;;;;;;1.00;0.50;;;;;;;28.10;26.63;97294.72;4935270;29;20135;-78
2022/07/13 10:18:02;;;;;;;0.65;0.30;;;;;;;28.15;27.30;97288.50;4935076;29;20437;-78
2022/07/13 10:20:30;;;;;;;0.30;0.30;;;;;;;28.18;25.92;97287.16;4935043;29;20059;-78
2022/07/13 10:22:59;;;;;;;1.20;0.30;;;;;;;28.20;25.80;97287.69;4935044;29;20051;-78
2022/07/13 10:25:44;;;;;;;1.38;0.75;;;;;;;28.22;25.89;97283.63;4935378;29;20411;-77
2022/07/13 10:28:13;;;;;;;2.85;0.47;;;;;;;28.25;25.68;97280.41;4935146;29;20051;-78
2022/07/13 10:30:40;;;;;;;1.52;0.75;;;;;;;28.28;25.16;97274.47;4934844;29;20134;-78
2022/07/13 10:33:19;;;;;;;1.02;0.28;;;;;;;28.32;25.56;97283.56;4934931;29;20131;-78
2022/07/13 10:35:49;;;;;;;0.57;0.35;;;;;;;28.35;23.71;97282.19;4935275;29;20055;-78
2022/07/13 10:38:18;;;;;;;1.60;0.30;;;;;;;28.39;24.37;97280.56;4935101;29;20103;-77
2022/07/13 10:40:47;;;;;;;0.25;0.20;;;;;;;28.44;24.89;97275.16;4935078;29;20479;-77
2022/07/13 10:43:17;;;;;;;1.08;0.40;;;;;;;28.50;24.91;97270.59;4935118;29;20075;-78
2022/07/13 10:45:48;;;;;;;1.38;0.17;;;;;;;28.55;25.13;97271.31;4936679;29;20138;-78
2022/07/13 10:48:42;;;;;;;1.45;0.10;;;;;;;28.64;24.86;97271.50;4938427;29;20056;-78
2022/07/13 10:51:18;;;;;;;0.70;0.20;;;;;;;28.71;24.42;97269.31;4938098;29;20044;-78
2022/07/13 10:54:04;;;;;;;3.95;1.05;;;;;;;28.76;24.23;97265.78;4938851;29;20079;-79
2022/07/13 10:56:33;;;;;;;3.00;0.40;;;;;;;28.79;24.04;97264.41;4938239;29;20052;-78
2022/07/13 10:59:02;;;;;;;1.80;0.40;;;;;;;28.81;23.43;97267.63;4938042;29;20146;-78
2022/07/13 11:01:37;;;;;;;2.95;0.30;;;;;;;28.81;24.19;97267.63;4938732;29;20099;-77
2022/07/13 11:04:05;;;;;;;0.50;0.10;;;;;;;28.82;21.84;97261.97;4937693;29;20509;-78
2022/07/13 11:06:33;;;;;;;0.30;0.10;;;;;;;28.83;19.96;97254.72;4937710;29;20143;-78
2022/07/13 11:09:12;;;;;;;2.83;0.35;;;;;;;28.86;21.52;97246.91;4938173;29;20090;-77
2022/07/13 11:11:53;;;;;;;1.08;0.10;;;;;;;28.92;21.78;97244.94;4937469;29;20070;-78
2022/07/13 11:14:49;;;;;;;0.20;0.20;;;;;;;29.01;21.92;97240.53;4937750;29;20070;-77
2022/07/13 11:17:18;;;;;;;0.82;0.10;;;;;;;29.11;21.65;97240.47;4937589;29;20115;-79
2022/07/13 11:19:50;;;;;;;1.25;0.38;;;;;;;29.20;22.96;97242.53;4937739;29;20143;-77
2022/07/13 11:22:18;;;;;;;17.40;1.25;;;;;;;29.25;23.40;97235.19;4937540;29;20498;-76
2022/07/13 11:25:14;;;;;;;2.35;0.35;;;;;;;29.29;24.29;97235.44;4937689;29;20478;-77
2022/07/13 11:27:57;;;;;;;4.68;0.75;;;;;;;29.30;24.87;97237.84;4937223;29;20060;-77
2022/07/13 11:30:29;;;;;;;1.15;0.40;;;;;;;29.32;25.49;97226.78;4936905;29;20051;-78
2022/07/13 11:32:57;;;;;;;2.00;0.50;;;;;;;29.33;25.71;97225.72;4937310;29;20085;-77
2022/07/13 11:35:25;;;;;;;6.03;0.70;;;;;;;29.36;25.79;97227.81;4937217;29;20066;-78
2022/07/13 11:37:53;;;;;;;2.58;0.60;;;;;;;29.39;25.50;97227.25;4937196;29;20138;-77
2022/07/13 11:40:30;;;;;;;0.75;0.30;;;;;;;29.39;25.37;97219.19;4936803;29;20193;-78
2022/07/13 11:43:03;;;;;;;4.85;0.45;;;;;;;29.40;24.85;97215.41;4937049;29;20574;-78
2022/07/13 11:45:32;;;;;;;1.85;0.90;;;;;;;29.42;25.10;97215.91;4936822;29;20048;-78
2022/07/13 11:48:01;;;;;;;1.00;0.50;;;;;;;29.43;24.83;97203.28;4936874;29;20091;-78
2022/07/13 11:50:48;;;;;;;0.63;0.60;;;;;;;29.45;26.22;97201.09;4936426;29;20058;-79
2022/07/13 11:53:24;;;;;;;6.65;1.02;;;;;;;29.47;25.21;97210.47;4936848;29;20425;-77
2022/07/13 11:55:52;;;;;;;4.47;0.52;;;;;;;29.48;25.82;97212.09;4936841;29;20052;-77
2022/07/13 11:58:28;;;;;;;0.50;0.30;;;;;;;29.49;25.77;97208.28;4935846;29;20055;-77
2022/07/13 12:00:56;;;;;;;2.17;0.50;;;;;;;29.50;25.93;97199.16;4936271;29;20098;-77
2022/07/13 12:03:32;;;;;;;0.25;0.20;;;;;;;29.52;25.32;97198.88;4936887;29;20047;-77
2022/07/13 12:06:02;;;;;;;2.15;0.60;;;;;;;29.53;26.08;97198.56;4936530;29;20052;-79
2022/07/13 12:08:32;;;;;;;0.90;0.30;;;;;;;29.58;25.24;97200.38;4936433;29;20589;-77
2022/07/13 12:11:01;;;;;;;0.70;0.50;;;;;;;29.62;25.43;97184.47;4935961;29;20569;-78
2022/07/13 12:13:34;;;;;;;0.70;0.40;;;;;;;29.67;24.59;97187.09;4936950;29;20060;-77
2022/07/13 12:16:03;;;;;;;1.05;0.40;;;;;;;29.73;25.26;97185.97;4936376;29;20138;-77
2022/07/13 12:18:31;;;;;;;0.47;0.47;;;;;;;29.80;25.10;97186.38;4936017;29;20055;-77
2022/07/13 12:20:59;;;;;;;1.20;0.60;;;;;;;29.85;24.30;97185.53;4935914;29;20047;-77
2022/07/13 12:23:31;;;;;;;0.95;0.38;;;;;;;29.89;24.71;97183.84;4936180;29;20574;-77
2022/07/13 12:26:07;;;;;;;0.60;0.35;;;;;;;29.91;24.45;97187.84;4936031;29;20048;-77
2022/07/13 12:28:39;;;;;;;1.08;0.50;;;;;;;29.92;23.94;97186.75;4937628;29;20130;-77
2022/07/13 12:31:08;;;;;;;0.55;0.30;;;;;;;29.93;24.20;97185.63;4935617;29;20048;-77
2022/07/13 12:33:42;;;;;;;1.13;0.40;;;;;;;29.95;24.56;97188.84;4936014;29;20048;-77
2022/07/13 12:36:11;;;;;;;0.47;0.40;;;;;;;29.95;24.69;97172.69;4935760;29;20056;-77
2022/07/13 12:38:56;;;;;;;0.50;0.30;;;;;;;29.97;23.69;97175.91;4935680;29;20138;-77
2022/07/13 12:41:27;;;;;;;0.57;0.30;;;;;;;30.02;23.96;97171.53;4935538;29;20135;-77
2022/07/13 12:44:01;;;;;;;1.30;0.45;;;;;;;30.07;24.84;97168.78;4935849;29;20074;-77
2022/07/13 12:46:48;;;;;;;0.95;0.40;;;;;;;30.12;23.67;97168.69;4935531;29;20488;-77
2022/07/13 12:49:15;;;;;;;0.52;0.43;;;;;;;30.12;23.77;97161.41;4936008;29;20055;-77
2022/07/13 12:51:51;;;;;;;2.67;0.90;;;;;;;30.13;23.70;97159.50;4935273;29;20093;-78
2022/07/13 12:54:40;;;;;;;3.38;0.88;;;;;;;30.15;24.38;97157.31;4935749;29;20051;-78
2022/07/13 12:57:10;;;;;;;2.70;0.30;;;;;;;30.18;22.81;97154.06;4935507;29;20056;-78
2022/07/13 12:59:39;;;;;;;0.80;0.80;;;;;;;30.18;23.96;97154.84;4935648;29;20090;-77
2022/07/13 13:02:06;;;;;;;1.20;0.40;;;;;;;30.19;23.11;97147.56;4935407;29;20138;-77
2022/07/13 13:04:34;;;;;;;10.02;2.63;;;;;;;30.18;23.68;97143.31;4935352;29;20055;-77
2022/07/13 13:07:02;;;;;;;3.00;1.13;;;;;;;30.21;23.20;97142.69;4935605;29;20048;-76
2022/07/13 13:09:30;;;;;;;5.40;2.33;;;;;;;30.26;23.44;97144.50;4935113;29;20536;-78
2022/07/13 13:11:57;;;;;;;2.55;0.40;;;;;;;30.30;22.96;97145.53;4934738;29;20142;-78
2022/07/13 13:14:25;;;;;;;1.55;0.57;;;;;;;30.31;23.17;97142.56;4935234;29;20138;-77
2022/07/13 13:16:54;;;;;;;3.67;1.10;;;;;;;30.33;23.42;97142.28;4935320;29;20168;-76
2022/07/13 13:19:21;;;;;;;0.32;0.17;;;;;;;30.34;22.72;97139.25;4934968;29;20059;-77
2022/07/13 13:21:49;;;;;;;1.25;0.10;;;;;;;30.36;23.09;97128.22;4934921;29;20413;-77
2022/07/13 13:24:16;;;;;;;1.38;0.40;;;;;;;30.38;23.46;97126.03;4935391;29;20138;-77
2022/07/13 13:26:45;;;;;;;1.13;0.28;;;;;;;30.38;22.75;97129.50;4935249;29;20146;-77
2022/07/13 13:32:19;;;;;;;1.45;0.10;;;;;;;30.46;23.55;97133.41;4934685;29;20066;-77
2022/07/13 13:34:48;;;;;;;0.88;0.20;;;;;;;30.49;23.22;97127.44;4934833;29;20059;-77
2022/07/13 13:37:16;;;;;;;0.10;0.10;;;;;;;30.50;23.60;97125.53;4935035;29;20467;-77
2022/07/13 13:39:43;;;;;;;0.20;0.20;;;;;;;30.50;23.11;97120.97;4934905;29;20082;-78
2022/07/13 13:42:11;;;;;;;1.13;0.20;;;;;;;30.52;23.08;97115.25;4934744;29;20060;-77
2022/07/13 13:44:59;;;;;;;0.32;0.20;;;;;;;30.52;23.40;97107.97;4934851;29;20056;-77
2022/07/13 13:47:28;;;;;;;0.65;0.20;;;;;;;30.52;24.20;97110.66;4934874;29;20071;-77